sensor_id;sensor_type;location;lat;lon;timestamp;temperature;humidity
35593;DHT22;64447;52.140;5.602;2023-05-10T00:01:26;16.00;99.90
35593;DHT22;64447;52.140;5.602;2023-05-10T00:03:51;16.10;99.90
35593;DHT22;64447;52.140;5.602;2023-05-10T00:06:17;16.10;99.90
35593;DHT22;64447;52.140;5.602;2023-05-10T00:08:43;16.10;99.90
35593;DHT22;64447;52.140;5.602;2023-05-10T00:11:08;16.10;99.90
35593;DHT22;64447;52.140;5.602;2023-05-10T00:13:34;16.10;99.90
35593;DHT22;64447;52.140;5.602;2023-05-10T00:16:00;16.20;99.90
35593;DHT22;64447;52.140;5.602;2023-05-10T00:21:47;16.20;99.90
35593;DHT22;64447;52.140;5.602;2023-05-10T00:24:13;16.20;99.90
35593;DHT22;64447;52.140;5.602;2023-05-10T00:26:38;16.20;99.90
35593;DHT22;64447;52.140;5.602;2023-05-10T00:29:04;16.10;99.90
35593;DHT22;64447;52.140;5.602;2023-05-10T00:31:29;16.00;99.90
35593;DHT22;64447;52.140;5.602;2023-05-10T00:37:17;15.90;99.90
35593;DHT22;64447;52.140;5.602;2023-05-10T00:39:42;15.80;99.90
35593;DHT22;64447;52.140;5.602;2023-05-10T00:42:08;15.80;99.90
35593;DHT22;64447;52.140;5.602;2023-05-10T00:44:33;15.90;99.90
35593;DHT22;64447;52.140;5.602;2023-05-10T00:46:59;15.80;99.90
35593;DHT22;64447;52.140;5.602;2023-05-10T00:49:25;15.90;99.90
35593;DHT22;64447;52.140;5.602;2023-05-10T00:51:50;15.80;99.90
35593;DHT22;64447;52.140;5.602;2023-05-10T00:54:16;15.60;99.90
35593;DHT22;64447;52.140;5.602;2023-05-10T00:56:42;15.50;99.90
35593;DHT22;64447;52.140;5.602;2023-05-10T00:59:14;15.60;99.90
35593;DHT22;64447;52.140;5.602;2023-05-10T01:01:40;15.60;99.90
35593;DHT22;64447;52.140;5.602;2023-05-10T01:07:28;15.50;99.90
35593;DHT22;64447;52.140;5.602;2023-05-10T01:09:53;15.50;99.90
35593;DHT22;64447;52.140;5.602;2023-05-10T01:14:45;15.30;99.90
35593;DHT22;64447;52.140;5.602;2023-05-10T01:17:12;15.40;99.90
35593;DHT22;64447;52.140;5.602;2023-05-10T01:19:37;15.30;99.90
35593;DHT22;64447;52.140;5.602;2023-05-10T01:33:49;14.80;99.90
35593;DHT22;64447;52.140;5.602;2023-05-10T01:36:34;14.70;99.90
35593;DHT22;64447;52.140;5.602;2023-05-10T01:41:44;14.80;99.90
35593;DHT22;64447;52.140;5.602;2023-05-10T01:44:20;14.60;99.90
35593;DHT22;64447;52.140;5.602;2023-05-10T01:50:17;14.70;99.90
35593;DHT22;64447;52.140;5.602;2023-05-10T01:52:46;14.80;99.90
35593;DHT22;64447;52.140;5.602;2023-05-10T01:55:15;15.00;99.90
35593;DHT22;64447;52.140;5.602;2023-05-10T01:57:44;14.80;99.90
35593;DHT22;64447;52.140;5.602;2023-05-10T02:00:12;14.80;99.90
35593;DHT22;64447;52.140;5.602;2023-05-10T02:06:00;14.90;99.90
35593;DHT22;64447;52.140;5.602;2023-05-10T02:08:27;14.80;99.90
35593;DHT22;64447;52.140;5.602;2023-05-10T02:10:54;14.80;99.90
35593;DHT22;64447;52.140;5.602;2023-05-10T02:13:21;14.70;99.90
35593;DHT22;64447;52.140;5.602;2023-05-10T02:15:48;14.80;99.90
35593;DHT22;64447;52.140;5.602;2023-05-10T02:21:38;14.80;99.90
35593;DHT22;64447;52.140;5.602;2023-05-10T02:24:05;14.70;99.90
35593;DHT22;64447;52.140;5.602;2023-05-10T02:26:33;14.60;99.90
35593;DHT22;64447;52.140;5.602;2023-05-10T02:29:01;14.70;99.90
35593;DHT22;64447;52.140;5.602;2023-05-10T02:31:29;14.70;99.90
35593;DHT22;64447;52.140;5.602;2023-05-10T02:37:19;14.60;99.90
35593;DHT22;64447;52.140;5.602;2023-05-10T02:39:50;14.80;99.90
35593;DHT22;64447;52.140;5.602;2023-05-10T02:42:19;14.90;99.90
35593;DHT22;64447;52.140;5.602;2023-05-10T02:44:48;15.00;99.90
35593;DHT22;64447;52.140;5.602;2023-05-10T02:47:16;15.10;99.90
35593;DHT22;64447;52.140;5.602;2023-05-10T02:49:42;15.00;99.90
35593;DHT22;64447;52.140;5.602;2023-05-10T02:52:08;15.10;99.90
35593;DHT22;64447;52.140;5.602;2023-05-10T02:54:39;15.10;99.90
35593;DHT22;64447;52.140;5.602;2023-05-10T02:57:07;15.10;99.90
35593;DHT22;64447;52.140;5.602;2023-05-10T02:59:34;15.10;99.90
35593;DHT22;64447;52.140;5.602;2023-05-10T03:02:00;15.00;99.90
35593;DHT22;64447;52.140;5.602;2023-05-10T03:07:49;14.60;99.90
35593;DHT22;64447;52.140;5.602;2023-05-10T03:10:15;14.40;99.90
35593;DHT22;64447;52.140;5.602;2023-05-10T03:13:09;14.40;99.90
35593;DHT22;64447;52.140;5.602;2023-05-10T03:16:10;14.40;99.90
35593;DHT22;64447;52.140;5.602;2023-05-10T03:18:54;14.40;99.90
35593;DHT22;64447;52.140;5.602;2023-05-10T03:21:22;14.20;99.90
35593;DHT22;64447;52.140;5.602;2023-05-10T03:24:01;14.10;99.90
35593;DHT22;64447;52.140;5.602;2023-05-10T03:26:29;14.10;99.90
35593;DHT22;64447;52.140;5.602;2023-05-10T03:28:55;14.10;99.90
35593;DHT22;64447;52.140;5.602;2023-05-10T03:31:21;14.10;99.90
35593;DHT22;64447;52.140;5.602;2023-05-10T03:33:50;14.00;99.90
35593;DHT22;64447;52.140;5.602;2023-05-10T03:36:17;13.90;99.90
35593;DHT22;64447;52.140;5.602;2023-05-10T03:38:43;14.00;99.90
35593;DHT22;64447;52.140;5.602;2023-05-10T03:41:09;13.80;99.90
35593;DHT22;64447;52.140;5.602;2023-05-10T03:43:34;13.80;99.90
35593;DHT22;64447;52.140;5.602;2023-05-10T03:46:04;13.60;99.90
35593;DHT22;64447;52.140;5.602;2023-05-10T03:48:30;13.60;99.90
35593;DHT22;64447;52.140;5.602;2023-05-10T03:50:55;13.60;99.90
35593;DHT22;64447;52.140;5.602;2023-05-10T03:53:21;13.60;99.90
35593;DHT22;64447;52.140;5.602;2023-05-10T03:55:48;13.60;99.90
35593;DHT22;64447;52.140;5.602;2023-05-10T03:58:14;13.70;99.90
35593;DHT22;64447;52.140;5.602;2023-05-10T04:00:40;13.70;99.90
35593;DHT22;64447;52.140;5.602;2023-05-10T04:03:11;13.70;99.90
35593;DHT22;64447;52.140;5.602;2023-05-10T04:05:37;13.70;99.90
35593;DHT22;64447;52.140;5.602;2023-05-10T04:08:04;13.70;99.90
35593;DHT22;64447;52.140;5.602;2023-05-10T04:10:30;13.80;99.90
35593;DHT22;64447;52.140;5.602;2023-05-10T04:12:55;13.90;99.90
35593;DHT22;64447;52.140;5.602;2023-05-10T04:15:21;13.90;99.90
35593;DHT22;64447;52.140;5.602;2023-05-10T04:17:47;13.80;99.90
35593;DHT22;64447;52.140;5.602;2023-05-10T04:20:13;13.70;99.90
35593;DHT22;64447;52.140;5.602;2023-05-10T04:22:38;13.70;99.90
35593;DHT22;64447;52.140;5.602;2023-05-10T04:25:04;13.60;99.90
35593;DHT22;64447;52.140;5.602;2023-05-10T04:27:30;13.60;99.90
35593;DHT22;64447;52.140;5.602;2023-05-10T04:29:56;13.60;99.90
35593;DHT22;64447;52.140;5.602;2023-05-10T04:32:22;13.70;99.90
35593;DHT22;64447;52.140;5.602;2023-05-10T04:38:09;13.80;99.90
35593;DHT22;64447;52.140;5.602;2023-05-10T04:40:35;13.80;99.90
35593;DHT22;64447;52.140;5.602;2023-05-10T04:43:01;13.80;99.90
35593;DHT22;64447;52.140;5.602;2023-05-10T04:45:26;13.80;99.90
35593;DHT22;64447;52.140;5.602;2023-05-10T04:47:52;13.80;99.90
35593;DHT22;64447;52.140;5.602;2023-05-10T04:50:17;13.80;99.90
35593;DHT22;64447;52.140;5.602;2023-05-10T04:52:43;13.90;99.90
35593;DHT22;64447;52.140;5.602;2023-05-10T04:55:09;13.80;99.90
35593;DHT22;64447;52.140;5.602;2023-05-10T04:57:35;13.80;99.90
35593;DHT22;64447;52.140;5.602;2023-05-10T05:00:00;13.90;99.90
35593;DHT22;64447;52.140;5.602;2023-05-10T05:02:26;13.90;99.90
35593;DHT22;64447;52.140;5.602;2023-05-10T05:08:14;14.00;99.90
35593;DHT22;64447;52.140;5.602;2023-05-10T05:10:40;14.00;99.90
35593;DHT22;64447;52.140;5.602;2023-05-10T05:13:05;13.90;99.90
35593;DHT22;64447;52.140;5.602;2023-05-10T05:15:31;13.80;99.90
35593;DHT22;64447;52.140;5.602;2023-05-10T05:17:56;13.60;99.90
35593;DHT22;64447;52.140;5.602;2023-05-10T05:20:22;13.70;99.90
35593;DHT22;64447;52.140;5.602;2023-05-10T05:22:48;13.80;99.90
35593;DHT22;64447;52.140;5.602;2023-05-10T05:25:13;13.80;99.90
35593;DHT22;64447;52.140;5.602;2023-05-10T05:27:40;13.90;99.90
35593;DHT22;64447;52.140;5.602;2023-05-10T05:30:06;14.10;99.90
35593;DHT22;64447;52.140;5.602;2023-05-10T05:32:32;14.30;99.90
35593;DHT22;64447;52.140;5.602;2023-05-10T05:38:19;14.00;99.90
35593;DHT22;64447;52.140;5.602;2023-05-10T05:40:45;14.10;99.90
35593;DHT22;64447;52.140;5.602;2023-05-10T05:43:11;14.30;99.90
35593;DHT22;64447;52.140;5.602;2023-05-10T05:45:37;14.40;99.90
35593;DHT22;64447;52.140;5.602;2023-05-10T05:48:02;14.40;99.90
35593;DHT22;64447;52.140;5.602;2023-05-10T05:50:28;14.30;99.90
35593;DHT22;64447;52.140;5.602;2023-05-10T05:52:53;14.20;99.90
35593;DHT22;64447;52.140;5.602;2023-05-10T05:55:19;14.30;99.90
35593;DHT22;64447;52.140;5.602;2023-05-10T05:57:45;14.40;99.90
35593;DHT22;64447;52.140;5.602;2023-05-10T06:00:11;14.60;99.90
35593;DHT22;64447;52.140;5.602;2023-05-10T06:02:36;14.30;99.90
35593;DHT22;64447;52.140;5.602;2023-05-10T06:08:23;14.30;99.90
35593;DHT22;64447;52.140;5.602;2023-05-10T06:10:49;14.10;99.90
35593;DHT22;64447;52.140;5.602;2023-05-10T06:13:15;14.20;99.90
35593;DHT22;64447;52.140;5.602;2023-05-10T06:15:40;14.40;99.90
35593;DHT22;64447;52.140;5.602;2023-05-10T06:18:06;14.20;99.90
35593;DHT22;64447;52.140;5.602;2023-05-10T06:23:53;13.80;99.90
35593;DHT22;64447;52.140;5.602;2023-05-10T06:26:19;13.60;99.90
35593;DHT22;64447;52.140;5.602;2023-05-10T06:28:46;13.70;99.90
35593;DHT22;64447;52.140;5.602;2023-05-10T06:31:11;13.60;99.90
35593;DHT22;64447;52.140;5.602;2023-05-10T06:33:37;13.60;99.90
35593;DHT22;64447;52.140;5.602;2023-05-10T06:36:03;13.80;99.90
35593;DHT22;64447;52.140;5.602;2023-05-10T06:38:29;13.90;99.90
35593;DHT22;64447;52.140;5.602;2023-05-10T06:40:54;13.80;99.90
35593;DHT22;64447;52.140;5.602;2023-05-10T06:43:20;13.90;99.90
35593;DHT22;64447;52.140;5.602;2023-05-10T06:45:46;13.80;99.90
35593;DHT22;64447;52.140;5.602;2023-05-10T06:48:12;13.70;99.90
35593;DHT22;64447;52.140;5.602;2023-05-10T06:54:00;13.50;99.90
35593;DHT22;64447;52.140;5.602;2023-05-10T06:56:25;13.60;99.90
35593;DHT22;64447;52.140;5.602;2023-05-10T06:58:51;13.70;99.90
35593;DHT22;64447;52.140;5.602;2023-05-10T07:01:16;13.70;99.90
35593;DHT22;64447;52.140;5.602;2023-05-10T07:03:42;13.90;99.90
35593;DHT22;64447;52.140;5.602;2023-05-10T07:06:08;13.80;99.90
35593;DHT22;64447;52.140;5.602;2023-05-10T07:08:34;13.90;99.90
35593;DHT22;64447;52.140;5.602;2023-05-10T07:11:04;13.90;99.90
35593;DHT22;64447;52.140;5.602;2023-05-10T07:13:30;13.60;99.90
35593;DHT22;64447;52.140;5.602;2023-05-10T07:15:57;13.70;99.90
35593;DHT22;64447;52.140;5.602;2023-05-10T07:18:22;13.80;99.90
35593;DHT22;64447;52.140;5.602;2023-05-10T07:24:10;14.20;99.90
35593;DHT22;64447;52.140;5.602;2023-05-10T07:26:35;14.20;99.90
35593;DHT22;64447;52.140;5.602;2023-05-10T07:29:01;14.20;99.90
35593;DHT22;64447;52.140;5.602;2023-05-10T07:31:26;14.30;99.90
35593;DHT22;64447;52.140;5.602;2023-05-10T07:33:52;14.50;99.90
35593;DHT22;64447;52.140;5.602;2023-05-10T07:36:17;14.60;99.90
35593;DHT22;64447;52.140;5.602;2023-05-10T07:38:43;14.70;99.90
35593;DHT22;64447;52.140;5.602;2023-05-10T07:41:10;14.70;99.90
35593;DHT22;64447;52.140;5.602;2023-05-10T07:43:36;14.70;99.90
35593;DHT22;64447;52.140;5.602;2023-05-10T07:46:01;14.50;99.90
35593;DHT22;64447;52.140;5.602;2023-05-10T07:48:27;14.40;99.90
35593;DHT22;64447;52.140;5.602;2023-05-10T07:54:15;14.40;99.90
35593;DHT22;64447;52.140;5.602;2023-05-10T07:56:40;14.30;99.90
35593;DHT22;64447;52.140;5.602;2023-05-10T07:59:15;14.50;99.90
35593;DHT22;64447;52.140;5.602;2023-05-10T08:01:42;14.40;99.90
35593;DHT22;64447;52.140;5.602;2023-05-10T08:04:08;14.20;99.90
35593;DHT22;64447;52.140;5.602;2023-05-10T08:06:34;14.10;99.90
35593;DHT22;64447;52.140;5.602;2023-05-10T08:09:00;14.40;99.90
35593;DHT22;64447;52.140;5.602;2023-05-10T08:11:26;14.40;99.90
35593;DHT22;64447;52.140;5.602;2023-05-10T08:13:53;14.40;99.90
35593;DHT22;64447;52.140;5.602;2023-05-10T08:16:19;14.40;99.90
35593;DHT22;64447;52.140;5.602;2023-05-10T08:18:46;14.30;99.90
35593;DHT22;64447;52.140;5.602;2023-05-10T08:21:12;14.30;99.90
35593;DHT22;64447;52.140;5.602;2023-05-10T08:23:38;14.30;99.90
35593;DHT22;64447;52.140;5.602;2023-05-10T08:26:03;14.60;99.90
35593;DHT22;64447;52.140;5.602;2023-05-10T08:28:29;14.70;99.90
35593;DHT22;64447;52.140;5.602;2023-05-10T08:30:55;14.80;99.90
35593;DHT22;64447;52.140;5.602;2023-05-10T08:33:20;14.80;99.90
35593;DHT22;64447;52.140;5.602;2023-05-10T08:39:08;14.90;99.90
35593;DHT22;64447;52.140;5.602;2023-05-10T08:41:36;14.70;99.90
35593;DHT22;64447;52.140;5.602;2023-05-10T08:44:04;14.80;99.90
35593;DHT22;64447;52.140;5.602;2023-05-10T08:46:31;15.00;99.90
35593;DHT22;64447;52.140;5.602;2023-05-10T08:49:01;15.10;99.90
35593;DHT22;64447;52.140;5.602;2023-05-10T08:51:32;15.20;99.90
35593;DHT22;64447;52.140;5.602;2023-05-10T08:54:01;15.00;99.90
35593;DHT22;64447;52.140;5.602;2023-05-10T08:56:28;14.80;99.90
35593;DHT22;64447;52.140;5.602;2023-05-10T08:58:53;14.90;99.90
35593;DHT22;64447;52.140;5.602;2023-05-10T09:01:20;14.70;99.90
35593;DHT22;64447;52.140;5.602;2023-05-10T09:03:46;14.70;99.90
35593;DHT22;64447;52.140;5.602;2023-05-10T09:09:35;14.60;99.90
35593;DHT22;64447;52.140;5.602;2023-05-10T09:12:01;14.60;99.90
35593;DHT22;64447;52.140;5.602;2023-05-10T09:14:27;14.40;99.90
35593;DHT22;64447;52.140;5.602;2023-05-10T09:16:53;14.30;99.90
35593;DHT22;64447;52.140;5.602;2023-05-10T09:19:20;14.40;99.90
35593;DHT22;64447;52.140;5.602;2023-05-10T09:21:46;14.20;99.90
35593;DHT22;64447;52.140;5.602;2023-05-10T09:24:12;14.00;99.90
35593;DHT22;64447;52.140;5.602;2023-05-10T09:26:49;14.10;99.90
35593;DHT22;64447;52.140;5.602;2023-05-10T09:29:14;13.90;99.90
35593;DHT22;64447;52.140;5.602;2023-05-10T09:31:51;14.10;99.90
35593;DHT22;64447;52.140;5.602;2023-05-10T09:34:28;14.40;99.90
35593;DHT22;64447;52.140;5.602;2023-05-10T09:36:59;14.60;99.90
35593;DHT22;64447;52.140;5.602;2023-05-10T09:39:33;14.90;99.90
35593;DHT22;64447;52.140;5.602;2023-05-10T09:42:01;14.90;99.90
35593;DHT22;64447;52.140;5.602;2023-05-10T09:44:29;15.20;99.90
35593;DHT22;64447;52.140;5.602;2023-05-10T09:46:55;15.30;99.90
35593;DHT22;64447;52.140;5.602;2023-05-10T09:49:21;15.40;99.90
35593;DHT22;64447;52.140;5.602;2023-05-10T09:51:47;15.50;99.90
35593;DHT22;64447;52.140;5.602;2023-05-10T09:54:15;15.70;99.90
35593;DHT22;64447;52.140;5.602;2023-05-10T09:56:41;15.80;99.90
35593;DHT22;64447;52.140;5.602;2023-05-10T09:59:09;15.80;99.90
35593;DHT22;64447;52.140;5.602;2023-05-10T10:01:37;16.20;99.90
35593;DHT22;64447;52.140;5.602;2023-05-10T10:04:06;16.30;99.90
35593;DHT22;64447;52.140;5.602;2023-05-10T10:09:55;16.30;99.90
35593;DHT22;64447;52.140;5.602;2023-05-10T10:12:20;16.50;99.90
35593;DHT22;64447;52.140;5.602;2023-05-10T10:14:47;16.60;99.90
35593;DHT22;64447;52.140;5.602;2023-05-10T10:17:13;16.80;99.90
35593;DHT22;64447;52.140;5.602;2023-05-10T10:19:40;17.00;99.90
35593;DHT22;64447;52.140;5.602;2023-05-10T10:22:06;17.00;99.90
35593;DHT22;64447;52.140;5.602;2023-05-10T10:24:32;17.00;99.90
35593;DHT22;64447;52.140;5.602;2023-05-10T10:27:16;17.00;99.90
35593;DHT22;64447;52.140;5.602;2023-05-10T10:29:59;17.20;99.90
35593;DHT22;64447;52.140;5.602;2023-05-10T10:34:59;17.60;99.90
35593;DHT22;64447;52.140;5.602;2023-05-10T10:37:43;17.60;99.50
35593;DHT22;64447;52.140;5.602;2023-05-10T10:40:29;17.40;98.90
35593;DHT22;64447;52.140;5.602;2023-05-10T10:42:56;16.90;99.60
35593;DHT22;64447;52.140;5.602;2023-05-10T10:45:23;16.80;99.30
35593;DHT22;64447;52.140;5.602;2023-05-10T10:47:49;16.60;99.90
35593;DHT22;64447;52.140;5.602;2023-05-10T10:50:18;16.70;99.90
35593;DHT22;64447;52.140;5.602;2023-05-10T10:52:44;16.70;99.90
35593;DHT22;64447;52.140;5.602;2023-05-10T10:57:49;16.60;99.90
35593;DHT22;64447;52.140;5.602;2023-05-10T11:00:29;16.60;99.80
35593;DHT22;64447;52.140;5.602;2023-05-10T11:03:04;16.80;99.90
35593;DHT22;64447;52.140;5.602;2023-05-10T11:08:30;17.30;99.20
35593;DHT22;64447;52.140;5.602;2023-05-10T11:13:44;17.10;99.50
35593;DHT22;64447;52.140;5.602;2023-05-10T11:16:23;17.10;99.90
35593;DHT22;64447;52.140;5.602;2023-05-10T11:19:04;17.10;99.40
35593;DHT22;64447;52.140;5.602;2023-05-10T11:21:31;17.20;99.90
35593;DHT22;64447;52.140;5.602;2023-05-10T11:23:59;17.00;99.90
35593;DHT22;64447;52.140;5.602;2023-05-10T11:26:35;17.20;99.90
35593;DHT22;64447;52.140;5.602;2023-05-10T11:29:01;17.40;99.90
35593;DHT22;64447;52.140;5.602;2023-05-10T11:31:28;17.60;99.90
35593;DHT22;64447;52.140;5.602;2023-05-10T11:33:55;17.70;99.90
35593;DHT22;64447;52.140;5.602;2023-05-10T11:36:27;17.90;99.20
35593;DHT22;64447;52.140;5.602;2023-05-10T11:38:54;18.00;98.60
35593;DHT22;64447;52.140;5.602;2023-05-10T11:41:20;17.90;98.80
35593;DHT22;64447;52.140;5.602;2023-05-10T11:43:53;18.00;99.10
35593;DHT22;64447;52.140;5.602;2023-05-10T11:46:22;18.20;98.30
35593;DHT22;64447;52.140;5.602;2023-05-10T11:48:53;18.30;98.10
35593;DHT22;64447;52.140;5.602;2023-05-10T11:51:22;18.30;97.40
35593;DHT22;64447;52.140;5.602;2023-05-10T11:53:53;18.10;97.70
35593;DHT22;64447;52.140;5.602;2023-05-10T11:56:19;18.10;98.20
35593;DHT22;64447;52.140;5.602;2023-05-10T11:58:56;18.20;98.70
35593;DHT22;64447;52.140;5.602;2023-05-10T12:01:26;18.40;98.10
35593;DHT22;64447;52.140;5.602;2023-05-10T12:03:53;18.40;96.60
35593;DHT22;64447;52.140;5.602;2023-05-10T12:06:20;18.40;96.90
35593;DHT22;64447;52.140;5.602;2023-05-10T12:08:47;18.30;97.70
35593;DHT22;64447;52.140;5.602;2023-05-10T12:11:13;18.20;97.50
35593;DHT22;64447;52.140;5.602;2023-05-10T12:13:42;18.20;97.80
35593;DHT22;64447;52.140;5.602;2023-05-10T12:18:41;18.40;96.90
35593;DHT22;64447;52.140;5.602;2023-05-10T12:21:10;18.60;97.30
35593;DHT22;64447;52.140;5.602;2023-05-10T12:23:36;18.60;96.80
35593;DHT22;64447;52.140;5.602;2023-05-10T12:26:03;18.40;97.40
35593;DHT22;64447;52.140;5.602;2023-05-10T12:28:32;18.60;96.40
35593;DHT22;64447;52.140;5.602;2023-05-10T12:30:59;18.70;96.80
35593;DHT22;64447;52.140;5.602;2023-05-10T12:33:25;18.70;96.30
35593;DHT22;64447;52.140;5.602;2023-05-10T12:35:53;18.40;96.70
35593;DHT22;64447;52.140;5.602;2023-05-10T12:38:37;18.40;96.80
35593;DHT22;64447;52.140;5.602;2023-05-10T12:41:07;18.50;96.20
35593;DHT22;64447;52.140;5.602;2023-05-10T12:43:34;18.60;96.30
35593;DHT22;64447;52.140;5.602;2023-05-10T12:46:13;18.70;96.60
35593;DHT22;64447;52.140;5.602;2023-05-10T12:48:40;18.80;95.80
35593;DHT22;64447;52.140;5.602;2023-05-10T12:51:07;18.90;95.40
35593;DHT22;64447;52.140;5.602;2023-05-10T12:53:37;19.00;96.20
35593;DHT22;64447;52.140;5.602;2023-05-10T12:56:03;19.00;96.00
35593;DHT22;64447;52.140;5.602;2023-05-10T12:58:29;18.80;95.40
35593;DHT22;64447;52.140;5.602;2023-05-10T13:00:54;18.40;94.70
35593;DHT22;64447;52.140;5.602;2023-05-10T13:03:22;18.20;96.60
35593;DHT22;64447;52.140;5.602;2023-05-10T13:05:47;18.30;97.10
35593;DHT22;64447;52.140;5.602;2023-05-10T13:08:13;18.40;96.80
35593;DHT22;64447;52.140;5.602;2023-05-10T13:10:39;18.50;96.00
35593;DHT22;64447;52.140;5.602;2023-05-10T13:13:04;18.40;96.30
35593;DHT22;64447;52.140;5.602;2023-05-10T13:15:30;18.10;95.40
35593;DHT22;64447;52.140;5.602;2023-05-10T13:17:56;18.00;95.10
35593;DHT22;64447;52.140;5.602;2023-05-10T13:20:21;17.80;96.10
35593;DHT22;64447;52.140;5.602;2023-05-10T13:26:09;18.10;96.20
35593;DHT22;64447;52.140;5.602;2023-05-10T13:28:34;17.90;95.60
35593;DHT22;64447;52.140;5.602;2023-05-10T13:31:00;17.90;96.90
35593;DHT22;64447;52.140;5.602;2023-05-10T13:33:26;18.00;96.10
35593;DHT22;64447;52.140;5.602;2023-05-10T13:35:51;18.20;96.30
35593;DHT22;64447;52.140;5.602;2023-05-10T13:38:17;18.40;96.40
35593;DHT22;64447;52.140;5.602;2023-05-10T13:40:42;18.00;95.60
35593;DHT22;64447;52.140;5.602;2023-05-10T13:43:08;17.80;96.50
35593;DHT22;64447;52.140;5.602;2023-05-10T13:45:33;17.60;97.50
35593;DHT22;64447;52.140;5.602;2023-05-10T13:47:59;17.60;98.00
35593;DHT22;64447;52.140;5.602;2023-05-10T13:50:25;17.50;97.90
35593;DHT22;64447;52.140;5.602;2023-05-10T13:56:13;17.40;99.70
35593;DHT22;64447;52.140;5.602;2023-05-10T13:58:39;17.00;99.90
35593;DHT22;64447;52.140;5.602;2023-05-10T14:01:05;16.70;99.90
35593;DHT22;64447;52.140;5.602;2023-05-10T14:03:30;16.40;99.90
35593;DHT22;64447;52.140;5.602;2023-05-10T14:05:56;16.20;99.90
35593;DHT22;64447;52.140;5.602;2023-05-10T14:08:22;15.90;99.90
35593;DHT22;64447;52.140;5.602;2023-05-10T14:10:48;15.90;99.90
35593;DHT22;64447;52.140;5.602;2023-05-10T14:13:14;15.70;99.90
35593;DHT22;64447;52.140;5.602;2023-05-10T14:15:40;15.60;99.90
35593;DHT22;64447;52.140;5.602;2023-05-10T14:18:06;15.60;99.90
35593;DHT22;64447;52.140;5.602;2023-05-10T14:20:32;15.60;99.90
35593;DHT22;64447;52.140;5.602;2023-05-10T14:26:21;15.50;99.90
35593;DHT22;64447;52.140;5.602;2023-05-10T14:28:47;15.40;99.90
35593;DHT22;64447;52.140;5.602;2023-05-10T14:31:12;15.40;99.90
35593;DHT22;64447;52.140;5.602;2023-05-10T14:33:38;15.30;99.90
35593;DHT22;64447;52.140;5.602;2023-05-10T14:36:03;15.40;99.90
35593;DHT22;64447;52.140;5.602;2023-05-10T14:38:29;15.30;99.90
35593;DHT22;64447;52.140;5.602;2023-05-10T14:40:55;15.30;99.90
35593;DHT22;64447;52.140;5.602;2023-05-10T14:43:20;15.20;99.90
35593;DHT22;64447;52.140;5.602;2023-05-10T14:45:46;15.30;99.90
35593;DHT22;64447;52.140;5.602;2023-05-10T14:48:12;15.30;99.90
35593;DHT22;64447;52.140;5.602;2023-05-10T14:50:43;15.30;99.90
35593;DHT22;64447;52.140;5.602;2023-05-10T14:56:30;15.20;99.90
35593;DHT22;64447;52.140;5.602;2023-05-10T14:58:56;15.20;99.90
35593;DHT22;64447;52.140;5.602;2023-05-10T15:01:22;15.10;99.90
35593;DHT22;64447;52.140;5.602;2023-05-10T15:03:47;15.10;99.90
35593;DHT22;64447;52.140;5.602;2023-05-10T15:06:14;15.10;99.90
35593;DHT22;64447;52.140;5.602;2023-05-10T15:08:41;15.10;99.90
35593;DHT22;64447;52.140;5.602;2023-05-10T15:11:06;15.10;99.90
35593;DHT22;64447;52.140;5.602;2023-05-10T15:13:32;15.20;99.90
35593;DHT22;64447;52.140;5.602;2023-05-10T15:15:58;15.30;99.90
35593;DHT22;64447;52.140;5.602;2023-05-10T15:18:23;15.20;99.90
35593;DHT22;64447;52.140;5.602;2023-05-10T15:20:49;15.00;99.90
35593;DHT22;64447;52.140;5.602;2023-05-10T15:26:36;14.60;99.90
35593;DHT22;64447;52.140;5.602;2023-05-10T15:29:02;14.40;99.90
35593;DHT22;64447;52.140;5.602;2023-05-10T15:31:28;14.60;99.90
35593;DHT22;64447;52.140;5.602;2023-05-10T15:33:57;14.60;99.90
35593;DHT22;64447;52.140;5.602;2023-05-10T15:36:24;14.40;99.90
35593;DHT22;64447;52.140;5.602;2023-05-10T15:38:50;14.40;99.90
35593;DHT22;64447;52.140;5.602;2023-05-10T15:41:15;14.50;99.90
35593;DHT22;64447;52.140;5.602;2023-05-10T15:43:41;14.50;99.90
35593;DHT22;64447;52.140;5.602;2023-05-10T15:46:07;14.70;99.90
35593;DHT22;64447;52.140;5.602;2023-05-10T15:48:32;15.10;99.90
35593;DHT22;64447;52.140;5.602;2023-05-10T15:50:58;15.20;99.90
35593;DHT22;64447;52.140;5.602;2023-05-10T15:56:46;15.80;99.90
35593;DHT22;64447;52.140;5.602;2023-05-10T15:59:11;15.90;99.90
35593;DHT22;64447;52.140;5.602;2023-05-10T16:01:37;16.20;99.90
35593;DHT22;64447;52.140;5.602;2023-05-10T16:04:03;16.40;99.90
35593;DHT22;64447;52.140;5.602;2023-05-10T16:06:29;16.50;99.90
35593;DHT22;64447;52.140;5.602;2023-05-10T16:12:17;16.80;99.90
35593;DHT22;64447;52.140;5.602;2023-05-10T16:14:43;16.90;99.90
35593;DHT22;64447;52.140;5.602;2023-05-10T16:17:08;17.00;99.90
35593;DHT22;64447;52.140;5.602;2023-05-10T16:19:34;17.10;99.90
35593;DHT22;64447;52.140;5.602;2023-05-10T16:22:00;17.20;99.90
35593;DHT22;64447;52.140;5.602;2023-05-10T16:24:26;17.20;99.90
35593;DHT22;64447;52.140;5.602;2023-05-10T16:26:51;17.30;99.90
35593;DHT22;64447;52.140;5.602;2023-05-10T16:29:17;17.30;99.90
35593;DHT22;64447;52.140;5.602;2023-05-10T16:31:43;17.20;99.90
35593;DHT22;64447;52.140;5.602;2023-05-10T16:34:08;17.30;99.90
35593;DHT22;64447;52.140;5.602;2023-05-10T16:36:34;17.30;99.90
35593;DHT22;64447;52.140;5.602;2023-05-10T16:42:22;17.50;99.90
35593;DHT22;64447;52.140;5.602;2023-05-10T16:44:48;17.70;99.90
35593;DHT22;64447;52.140;5.602;2023-05-10T16:47:14;17.60;99.90
35593;DHT22;64447;52.140;5.602;2023-05-10T16:49:39;17.70;99.90
35593;DHT22;64447;52.140;5.602;2023-05-10T16:52:05;17.80;99.90
35593;DHT22;64447;52.140;5.602;2023-05-10T16:54:31;17.90;99.90
35593;DHT22;64447;52.140;5.602;2023-05-10T16:56:56;17.90;99.90
35593;DHT22;64447;52.140;5.602;2023-05-10T16:59:22;17.90;99.90
35593;DHT22;64447;52.140;5.602;2023-05-10T17:01:48;18.00;99.90
35593;DHT22;64447;52.140;5.602;2023-05-10T17:04:13;17.80;99.90
35593;DHT22;64447;52.140;5.602;2023-05-10T17:06:39;17.70;99.90
35593;DHT22;64447;52.140;5.602;2023-05-10T17:12:26;17.40;99.90
35593;DHT22;64447;52.140;5.602;2023-05-10T17:14:52;17.50;99.90
35593;DHT22;64447;52.140;5.602;2023-05-10T17:17:18;17.40;99.90
35593;DHT22;64447;52.140;5.602;2023-05-10T17:19:44;17.30;99.90
35593;DHT22;64447;52.140;5.602;2023-05-10T17:22:11;17.30;99.90
35593;DHT22;64447;52.140;5.602;2023-05-10T17:27:58;17.40;99.90
35593;DHT22;64447;52.140;5.602;2023-05-10T17:30:24;17.40;99.90
35593;DHT22;64447;52.140;5.602;2023-05-10T17:32:52;17.30;99.90
35593;DHT22;64447;52.140;5.602;2023-05-10T17:35:19;17.40;99.90
35593;DHT22;64447;52.140;5.602;2023-05-10T17:37:45;17.50;99.90